Time;durP1;ratioP1;P1;durP2;ratioP2;P2;SDS_P1;SDS_P2;PMS_P1;PMS_P2;Temp;Humidity;BMP_temperature;BMP_pressure;BME280_temperature;BME280_humidity;BME280_pressure;Samples;Min_cycle;Max_cycle;Signal;HPM_P1;HPM_P2
2023/02/11 00:00:43;;;;;;;53.88;32.88;;;;;;;2.62;82.42;102160.41;4990491;28;20133;-64
2023/02/11 00:03:11;;;;;;;59.42;34.35;;;;;;;2.63;82.46;102162.13;4986065;28;20112;-64
2023/02/11 00:05:38;;;;;;;62.83;34.13;;;;;;;2.67;82.67;102163.84;4991247;28;20104;-64
2023/02/11 00:08:05;;;;;;;59.17;33.90;;;;;;;2.66;82.50;102155.19;4982517;28;20854;-65
2023/02/11 00:10:32;;;;;;;57.30;33.20;;;;;;;2.60;82.32;102165.56;4984937;28;20073;-63
2023/02/11 00:12:59;;;;;;;61.40;34.28;;;;;;;2.58;82.28;102175.13;4985460;28;20054;-63
2023/02/11 00:15:27;;;;;;;60.72;34.85;;;;;;;2.65;82.43;102179.44;4989106;28;20076;-63
2023/02/11 00:17:54;;;;;;;55.70;33.15;;;;;;;2.68;82.16;102194.19;4975699;28;20519;-63
2023/02/11 00:20:21;;;;;;;57.05;32.25;;;;;;;2.71;82.40;102199.38;4980408;28;20154;-65
2023/02/11 00:22:48;;;;;;;52.25;32.83;;;;;;;2.72;82.18;102198.50;4988585;28;20051;-64
2023/02/11 00:25:16;;;;;;;55.45;32.72;;;;;;;2.72;82.43;102195.91;4979523;28;20089;-65
2023/02/11 00:27:43;;;;;;;57.28;32.88;;;;;;;2.70;82.12;102169.91;4981942;28;20097;-63
2023/02/11 00:30:10;;;;;;;57.35;33.80;;;;;;;2.74;82.65;102175.94;4981051;28;20184;-64
2023/02/11 00:32:37;;;;;;;61.90;34.85;;;;;;;2.73;82.69;102158.63;4987615;28;20686;-64
2023/02/11 00:35:05;;;;;;;63.63;33.80;;;;;;;2.79;82.46;102153.41;4994782;28;20054;-62
2023/02/11 00:37:35;;;;;;;59.22;33.30;;;;;;;2.76;82.41;102164.69;4996720;28;20139;-65
2023/02/11 00:40:03;;;;;;;55.92;32.47;;;;;;;2.76;82.44;102158.63;4988189;28;20057;-65
2023/02/11 00:42:34;;;;;;;48.45;29.92;;;;;;;2.80;82.74;102157.75;4985441;28;20047;-65
2023/02/11 00:45:02;;;;;;;58.35;32.20;;;;;;;2.82;82.20;102155.16;4989945;28;20582;-64
2023/02/11 00:47:29;;;;;;;52.78;32.30;;;;;;;2.84;82.38;102154.28;4995501;28;20060;-65
2023/02/11 00:49:56;;;;;;;59.25;34.10;;;;;;;2.85;82.70;102169.00;4985811;28;20149;-65
2023/02/11 00:52:23;;;;;;;53.97;31.65;;;;;;;3.01;82.02;102170.69;4990161;28;20133;-62
2023/02/11 00:54:50;;;;;;;54.03;30.95;;;;;;;2.97;81.89;102169.00;4990527;28;20137;-65
2023/02/11 00:57:18;;;;;;;56.97;31.45;;;;;;;2.94;82.62;102155.97;4991542;28;20081;-62
2023/02/11 00:59:45;;;;;;;51.55;31.15;;;;;;;2.97;82.74;102169.00;4986916;28;20137;-63
2023/02/11 01:02:12;;;;;;;60.70;33.97;;;;;;;3.05;81.88;102164.59;4984003;28;20150;-65
2023/02/11 01:04:39;;;;;;;55.55;32.42;;;;;;;3.02;82.23;102154.22;4986813;28;20064;-63
2023/02/11 01:07:07;;;;;;;57.22;33.55;;;;;;;3.04;82.28;102139.47;4990832;28;20076;-62
2023/02/11 01:09:37;;;;;;;53.58;32.25;;;;;;;3.10;82.20;102130.75;4988148;28;20073;-64
2023/02/11 01:12:04;;;;;;;58.53;33.83;;;;;;;3.12;82.24;102110.81;4988643;28;20352;-63
2023/02/11 01:14:32;;;;;;;65.97;40.45;;;;;;;3.10;82.63;102099.53;4985304;28;20120;-64
2023/02/11 01:16:59;;;;;;;92.88;52.17;;;;;;;3.12;82.89;102103.03;4988122;28;20157;-64
2023/02/11 01:19:26;;;;;;;86.72;47.53;;;;;;;3.13;83.65;102093.47;4989224;28;20047;-64
2023/02/11 01:21:53;;;;;;;66.80;37.10;;;;;;;3.24;83.05;102099.47;4989562;28;20146;-64
2023/02/11 01:24:20;;;;;;;59.15;35.08;;;;;;;3.21;84.18;102076.94;4991143;28;20054;-64
2023/02/11 01:26:48;;;;;;;54.00;33.15;;;;;;;3.20;84.70;102084.78;4988682;28;20129;-64
2023/02/11 01:29:15;;;;;;;55.15;33.20;;;;;;;3.15;85.30;102077.00;5021123;22;20057;-89
2023/02/11 01:31:45;;;;;;;53.65;32.90;;;;;;;3.18;84.89;102076.09;5016962;28;20061;-88
2023/02/11 01:34:14;;;;;;;56.60;33.53;;;;;;;3.16;85.42;102073.50;5023281;28;20041;-87
2023/02/11 01:36:43;;;;;;;51.65;32.10;;;;;;;3.18;85.38;102081.31;5002284;28;20544;-89
2023/02/11 01:39:14;;;;;;;56.28;34.45;;;;;;;3.20;84.71;102075.22;4976647;28;20073;-88
2023/02/11 01:41:48;;;;;;;50.60;31.98;;;;;;;3.24;84.09;102081.25;4983897;28;20045;-90
2023/02/11 01:44:25;;;;;;;50.97;31.00;;;;;;;3.22;83.95;102072.59;5015275;28;20264;-89
2023/02/11 01:47:20;;;;;;;53.92;31.88;;;;;;;3.19;84.11;102063.06;5018244;28;20048;-88
2023/02/11 01:50:00;;;;;;;54.03;31.60;;;;;;;3.22;84.34;102062.19;5004338;28;20029;-89
2023/02/11 01:52:34;;;;;;;53.47;31.50;;;;;;;3.30;83.52;102079.50;5011065;28;20084;-88
2023/02/11 01:58:01;;;;;;;56.03;30.20;;;;;;;3.33;83.32;102073.41;5004106;28;20034;-88
2023/02/11 02:00:40;;;;;;;55.05;32.13;;;;;;;3.39;83.17;102069.91;5001854;28;20110;-89
2023/02/11 02:03:21;;;;;;;53.17;29.77;;;;;;;3.34;83.66;102077.75;4988058;28;20080;-88
2023/02/11 02:06:09;;;;;;;59.35;33.47;;;;;;;3.36;83.70;102059.50;5001011;28;20042;-87
2023/02/11 02:08:43;;;;;;;55.53;30.10;;;;;;;3.38;83.49;102056.03;5011786;28;20465;-89
2023/02/11 02:11:11;;;;;;;52.33;32.40;;;;;;;3.39;83.56;102046.50;4988017;28;20054;-88
2023/02/11 02:13:39;;;;;;;55.63;31.30;;;;;;;3.42;84.25;102057.75;4997777;28;20046;-87
2023/02/11 02:16:12;;;;;;;56.25;33.88;;;;;;;3.47;83.74;102057.72;4988313;28;20511;-88
2023/02/11 02:19:16;;;;;;;52.88;33.30;;;;;;;3.51;84.33;102051.59;5005183;28;20507;-88
2023/02/11 02:22:34;;;;;;;50.80;32.42;;;;;;;3.49;84.50;102061.16;5007680;28;20133;-89
2023/02/11 02:25:22;;;;;;;63.05;34.35;;;;;;;3.53;84.16;102049.84;4964262;28;20107;-88
2023/02/11 02:28:04;;;;;;;56.80;33.72;;;;;;;3.52;84.53;102042.94;5001987;28;20104;-88
2023/02/11 02:31:05;;;;;;;54.20;33.97;;;;;;;3.59;84.80;102038.53;5001286;28;20108;-87
2023/02/11 02:33:55;;;;;;;52.25;32.40;;;;;;;3.65;84.65;102039.38;4988504;28;20038;-88
2023/02/11 02:36:36;;;;;;;55.13;32.67;;;;;;;3.60;84.61;102037.66;5001598;28;20046;-88
2023/02/11 02:39:11;;;;;;;56.22;32.80;;;;;;;3.62;84.86;102036.78;4987298;28;20064;-88
2023/02/11 02:41:43;;;;;;;55.50;33.60;;;;;;;3.64;85.06;102027.19;4982257;28;20495;-88
2023/02/11 02:44:14;;;;;;;57.30;32.17;;;;;;;3.68;84.59;102023.69;4998262;28;20069;-86
2023/02/11 02:46:44;;;;;;;53.20;33.53;;;;;;;3.66;85.33;102022.00;4999579;28;20053;-87
2023/02/11 02:49:18;;;;;;;58.47;33.08;;;;;;;3.72;85.09;102008.91;4981963;28;20052;-89
2023/02/11 02:52:14;;;;;;;53.53;33.38;;;;;;;3.76;85.10;102013.22;4968397;28;20125;-88
2023/02/11 02:55:04;;;;;;;57.35;34.20;;;;;;;3.85;84.69;102020.09;5002702;28;20045;-88
2023/02/11 02:57:52;;;;;;;57.25;33.70;;;;;;;3.89;84.62;102013.97;5001936;28;20048;-90
2023/02/11 03:00:50;;;;;;;59.10;35.17;;;;;;;3.86;84.86;102004.44;4985472;28;20052;-86
2023/02/11 03:03:54;;;;;;;58.90;33.30;;;;;;;3.80;85.66;102000.16;4985234;28;20075;-87
2023/02/11 03:06:32;;;;;;;58.17;35.05;;;;;;;3.81;86.11;102004.47;5005291;28;20053;-87
2023/02/11 03:09:08;;;;;;;62.17;35.60;;;;;;;3.93;85.81;102011.34;4996102;28;20050;-87
2023/02/11 03:11:39;;;;;;;58.55;35.72;;;;;;;3.92;85.85;102007.00;4986157;28;20042;-87
2023/02/11 03:14:14;;;;;;;53.08;33.83;;;;;;;3.92;85.87;102007.00;4999568;28;20042;-85
2023/02/11 03:16:43;;;;;;;58.75;35.80;;;;;;;3.95;85.76;102000.88;4999447;28;20045;-86
2023/02/11 03:19:26;;;;;;;54.95;34.03;;;;;;;3.95;85.73;102003.50;4994981;28;20039;-86
2023/02/11 03:21:56;;;;;;;60.97;36.83;;;;;;;3.94;86.41;101994.81;4995662;28;20680;-87
2023/02/11 03:24:36;;;;;;;57.17;36.50;;;;;;;3.96;86.59;101997.41;4999063;28;20050;-87
2023/02/11 03:27:19;;;;;;;56.28;35.05;;;;;;;3.96;86.73;101989.56;4983199;28;20047;-86
2023/02/11 03:29:58;;;;;;;55.15;35.60;;;;;;;3.97;86.20;101988.72;4985728;28;20543;-89
2023/02/11 03:32:29;;;;;;;54.97;35.15;;;;;;;3.97;86.60;101988.72;5008344;28;20052;-87
2023/02/11 03:35:03;;;;;;;55.67;33.58;;;;;;;3.99;87.10;101992.16;4978161;28;20122;-87
2023/02/11 03:37:38;;;;;;;59.65;35.97;;;;;;;4.07;86.71;102001.63;4987797;28;20050;-87
2023/02/11 03:40:12;;;;;;;61.88;36.05;;;;;;;4.03;86.98;102004.28;5013178;28;20536;-87
2023/02/11 03:42:51;;;;;;;60.53;34.92;;;;;;;4.00;86.75;101993.88;4975313;28;20057;-86
2023/02/11 03:45:22;;;;;;;58.38;37.20;;;;;;;3.99;86.97;101995.63;5005083;28;20046;-86
2023/02/11 03:48:15;;;;;;;57.28;36.15;;;;;;;3.99;87.65;101992.16;4988160;28;20051;-86
2023/02/11 03:50:44;;;;;;;61.72;37.00;;;;;;;4.04;87.62;101988.63;5006788;28;20053;-88
2023/02/11 03:53:13;;;;;;;65.32;38.53;;;;;;;4.04;87.84;101992.97;4973123;28;20797;-87
2023/02/11 03:55:42;;;;;;;59.35;38.15;;;;;;;4.03;87.80;101988.66;4993547;28;20061;-88
2023/02/11 03:58:10;;;;;;;60.58;36.83;;;;;;;4.07;87.72;102004.25;5013125;28;20113;-85
2023/02/11 04:00:41;;;;;;;60.88;37.17;;;;;;;4.07;87.44;101991.22;4997056;28;20042;-86
2023/02/11 04:03:09;;;;;;;63.13;39.15;;;;;;;4.02;88.49;101986.94;5007598;28;20050;-88
2023/02/11 04:05:37;;;;;;;67.20;38.95;;;;;;;4.01;89.21;101990.44;4985625;28;20591;-87
2023/02/11 04:08:10;;;;;;;56.75;36.25;;;;;;;4.10;88.31;101997.25;4983546;28;20109;-87
2023/02/11 04:10:38;;;;;;;62.25;37.58;;;;;;;4.16;88.37;101990.25;5002271;28;20045;-87
2023/02/11 04:13:06;;;;;;;61.47;37.60;;;;;;;4.19;88.53;102005.00;5020319;28;20093;-87
2023/02/11 04:15:35;;;;;;;58.80;39.30;;;;;;;4.13;88.76;101989.41;4969753;28;20069;-86
2023/02/11 04:18:03;;;;;;;68.13;39.10;;;;;;;4.11;89.19;101986.84;4993559;28;20421;-87
2023/02/11 04:20:31;;;;;;;65.25;38.35;;;;;;;4.13;89.82;101997.25;4996075;28;20046;-87
2023/02/11 04:23:01;;;;;;;59.90;38.00;;;;;;;4.19;89.18;101990.25;5000361;28;20042;-85
2023/02/11 04:25:31;;;;;;;59.42;37.33;;;;;;;4.21;89.73;101990.22;4985983;28;20046;-87
2023/02/11 04:27:59;;;;;;;66.95;39.72;;;;;;;4.18;90.31;101998.91;4988911;28;20823;-86
2023/02/11 04:30:26;;;;;;;58.65;37.33;;;;;;;4.26;89.88;101988.41;4981515;28;20057;-85
2023/02/11 04:32:54;;;;;;;57.10;38.90;;;;;;;4.18;90.53;101998.91;4982592;28;20054;-86
2023/02/11 04:35:25;;;;;;;62.38;38.17;;;;;;;4.22;90.46;101997.13;5010242;28;20065;-86
2023/02/11 04:37:55;;;;;;;59.33;38.97;;;;;;;4.19;90.42;101997.19;4984645;28;20038;-86
2023/02/11 04:40:28;;;;;;;59.97;38.15;;;;;;;4.19;91.22;101991.97;5011903;28;20102;-86
2023/02/11 04:43:01;;;;;;;65.78;39.50;;;;;;;4.18;91.02;101977.19;4986687;28;20049;-86
2023/02/11 04:45:29;;;;;;;64.35;40.63;;;;;;;4.18;91.38;101966.78;5008054;28;20038;-89
2023/02/11 04:48:01;;;;;;;67.45;41.25;;;;;;;4.19;91.71;101968.53;4987631;28;20046;-88
2023/02/11 04:50:30;;;;;;;63.95;40.30;;;;;;;4.21;91.85;101967.59;4988926;28;20049;-88
2023/02/11 04:52:58;;;;;;;68.63;40.38;;;;;;;4.17;92.27;101967.66;4988357;28;20048;-88
2023/02/11 04:55:33;;;;;;;66.78;41.85;;;;;;;4.16;93.71;101973.75;4975481;28;20054;-88
2023/02/11 04:58:02;;;;;;;66.70;41.33;;;;;;;4.17;93.81;101962.44;4987527;28;20057;-89
2023/02/11 05:00:30;;;;;;;66.63;40.67;;;;;;;4.19;93.63;101958.09;4981358;28;20049;-88
2023/02/11 05:03:06;;;;;;;68.10;42.65;;;;;;;4.18;94.27;101949.38;5004494;28;20057;-88
2023/02/11 05:05:40;;;;;;;70.70;43.38;;;;;;;4.17;94.75;101946.81;5000913;28;20057;-87
2023/02/11 05:08:14;;;;;;;66.45;41.75;;;;;;;4.17;94.19;101952.03;5004127;28;20042;-87
2023/02/11 05:10:47;;;;;;;70.25;43.05;;;;;;;4.13;95.63;101935.56;5000133;28;20030;-88
2023/02/11 05:13:17;;;;;;;72.78;41.83;;;;;;;4.13;96.13;101942.50;5003714;28;20050;-88
2023/02/11 05:15:58;;;;;;;71.95;43.53;;;;;;;4.12;96.02;101919.94;4988298;28;20042;-89
2023/02/11 05:18:32;;;;;;;65.50;42.33;;;;;;;4.11;97.11;101928.66;4983040;28;20046;-89
2023/02/11 05:21:05;;;;;;;70.03;43.75;;;;;;;4.07;97.56;101920.00;4984060;28;20050;-89
2023/02/11 05:23:33;;;;;;;66.60;43.05;;;;;;;4.09;97.96;101915.63;4985270;28;20476;-90
2023/02/11 05:26:01;;;;;;;76.05;44.90;;;;;;;4.11;97.67;101907.81;4988164;28;20072;-88
2023/02/11 05:28:29;;;;;;;74.53;45.72;;;;;;;4.10;97.91;101899.13;4988849;28;20113;-88
2023/02/11 05:30:56;;;;;;;66.82;42.45;;;;;;;4.10;97.75;101898.22;4992059;28;20056;-88
2023/02/11 05:33:25;;;;;;;74.45;45.67;;;;;;;4.04;99.34;101907.84;5024426;28;20045;-88
2023/02/11 05:36:05;;;;;;;72.95;42.95;;;;;;;4.10;99.18;101899.13;4996260;28;20039;-88
2023/02/11 05:38:39;;;;;;;75.45;45.33;;;;;;;4.12;98.81;101894.75;5015051;28;20053;-88
2023/02/11 05:41:10;;;;;;;74.13;45.63;;;;;;;4.13;98.60;101896.47;5004071;28;20100;-88
2023/02/11 05:43:38;;;;;;;83.63;45.85;;;;;;;4.17;98.89;101886.88;4985722;28;20042;-89
2023/02/11 05:46:08;;;;;;;77.68;45.22;;;;;;;4.25;99.32;101903.28;5000275;28;20046;-88
2023/02/11 05:48:41;;;;;;;71.60;45.40;;;;;;;4.25;98.83;101890.25;4988213;28;20043;-87
2023/02/11 05:51:11;;;;;;;71.30;45.47;;;;;;;4.20;99.62;101892.06;4987653;28;20116;-87
2023/02/11 05:53:44;;;;;;;77.57;46.03;;;;;;;4.19;100.00;101885.13;5003430;28;20415;-88
2023/02/11 05:56:16;;;;;;;77.78;47.17;;;;;;;4.18;100.00;101889.44;5004803;28;20062;-88
2023/02/11 05:58:44;;;;;;;76.45;46.00;;;;;;;4.24;100.00;101905.03;4990969;28;20050;-88
2023/02/11 06:01:15;;;;;;;80.53;48.08;;;;;;;4.19;100.00;101895.53;4999139;28;20227;-89
2023/02/11 06:03:42;;;;;;;75.78;46.45;;;;;;;4.16;100.00;101899.03;4990801;28;20133;-87
2023/02/11 06:06:11;;;;;;;82.68;49.30;;;;;;;4.19;100.00;101899.00;4984390;28;20042;-88
2023/02/11 06:08:40;;;;;;;72.28;46.08;;;;;;;4.25;100.00;101918.91;4953521;28;20042;-87
2023/02/11 06:11:10;;;;;;;83.70;49.00;;;;;;;4.26;100.00;101912.81;4971825;28;20038;-89
2023/02/11 06:13:44;;;;;;;76.97;46.47;;;;;;;4.25;100.00;101906.75;5004213;28;20041;-88
2023/02/11 06:16:19;;;;;;;82.85;51.83;;;;;;;4.22;100.00;101908.53;4997235;28;20731;-86
2023/02/11 06:18:47;;;;;;;78.53;47.60;;;;;;;4.27;100.00;101911.94;4988742;28;20068;-87
2023/02/11 06:21:15;;;;;;;88.60;47.75;;;;;;;4.27;100.00;101902.34;4985283;28;20038;-86
2023/02/11 06:23:42;;;;;;;76.07;49.13;;;;;;;4.33;100.00;101898.84;4993486;28;20038;-85
2023/02/11 06:26:20;;;;;;;86.90;50.40;;;;;;;4.30;100.00;101897.13;4995839;28;20064;-86
2023/02/11 06:28:48;;;;;;;85.70;52.13;;;;;;;4.28;100.00;101900.66;5014796;28;20034;-86
2023/02/11 06:31:16;;;;;;;82.50;48.90;;;;;;;4.33;100.00;101909.25;4995314;28;20065;-87
2023/02/11 06:33:49;;;;;;;79.47;51.15;;;;;;;4.42;100.00;101903.06;5000006;28;20045;-87
2023/02/11 06:36:18;;;;;;;86.88;50.55;;;;;;;4.38;100.00;101891.81;4998345;28;20136;-84
2023/02/11 06:38:51;;;;;;;93.10;52.80;;;;;;;4.36;100.00;101892.69;4994720;28;20049;-85
2023/02/11 06:41:19;;;;;;;91.85;51.25;;;;;;;4.48;100.00;101887.34;4986147;28;20634;-86
2023/02/11 06:43:52;;;;;;;82.85;49.63;;;;;;;4.44;100.00;101876.09;4999104;28;20124;-87
2023/02/11 06:46:20;;;;;;;89.93;52.13;;;;;;;4.50;100.00;101882.94;4978057;28;20042;-88
2023/02/11 06:48:48;;;;;;;83.57;51.63;;;;;;;4.48;100.00;101906.44;4997070;28;20046;-86
2023/02/11 06:51:17;;;;;;;81.80;51.80;;;;;;;4.48;100.00;101875.16;4976787;28;20416;-86
2023/02/11 06:53:45;;;;;;;92.45;53.83;;;;;;;4.47;100.00;101891.69;4978798;28;20046;-88
2023/02/11 06:56:21;;;;;;;90.28;53.47;;;;;;;4.49;100.00;101887.31;5007228;28;20042;-87
2023/02/11 06:58:53;;;;;;;84.47;51.00;;;;;;;4.50;100.00;101901.19;4995819;28;20049;-87
2023/02/11 07:01:22;;;;;;;88.47;52.33;;;;;;;4.51;100.00;101906.41;4995030;28;20073;-87
2023/02/11 07:03:53;;;;;;;92.22;55.05;;;;;;;4.53;100.00;101909.00;4972938;28;20084;-87
2023/02/11 07:06:26;;;;;;;91.45;52.25;;;;;;;4.53;100.00;101891.59;4987331;28;20046;-88
2023/02/11 07:08:57;;;;;;;89.63;53.38;;;;;;;4.55;100.00;101884.63;4999199;28;20111;-87
2023/02/11 07:11:28;;;;;;;93.50;53.20;;;;;;;4.56;100.00;101875.91;4999682;28;20501;-87
2023/02/11 07:14:00;;;;;;;91.50;52.58;;;;;;;4.60;100.00;101881.09;4982077;28;20049;-86
2023/02/11 07:20:44;;;;;;;86.68;53.17;;;;;;;4.63;100.00;101868.84;5014130;28;20036;-88
2023/02/11 07:23:20;;;;;;;94.90;53.90;;;;;;;4.70;100.00;101865.28;4993656;28;20053;-87
2023/02/11 07:25:48;;;;;;;85.78;54.13;;;;;;;4.72;100.00;101871.31;4997163;28;20049;-88
2023/02/11 07:28:18;;;;;;;85.28;52.63;;;;;;;4.73;100.00;101869.59;5000419;28;20521;-86
2023/02/11 07:30:46;;;;;;;91.50;53.88;;;;;;;4.69;100.00;101858.34;4980263;28;20068;-88
2023/02/11 07:33:17;;;;;;;86.32;53.13;;;;;;;4.75;100.00;101857.38;4978262;28;20481;-88
2023/02/11 07:35:44;;;;;;;90.95;50.45;;;;;;;4.80;100.00;101864.25;4949453;28;20043;-85
2023/02/11 07:38:11;;;;;;;84.47;51.53;;;;;;;4.81;100.00;101862.50;4998367;28;20046;-86
2023/02/11 07:40:39;;;;;;;84.05;50.47;;;;;;;4.83;100.00;101871.19;4982266;28;20154;-86
2023/02/11 07:43:06;;;;;;;89.80;52.13;;;;;;;4.85;100.00;101866.78;4999413;28;20057;-85
2023/02/11 07:45:38;;;;;;;87.13;52.05;;;;;;;4.86;100.00;101867.66;4964904;28;20623;-86
2023/02/11 07:48:10;;;;;;;93.35;51.80;;;;;;;4.89;100.00;101863.25;5016858;28;20284;-86
2023/02/11 07:54:56;;;;;;;84.88;52.97;;;;;;;4.88;100.00;101858.94;5011474;28;20053;-85
2023/02/11 07:57:24;;;;;;;88.10;49.42;;;;;;;4.97;100.00;101877.06;4984844;28;20058;-84
2023/02/11 07:59:55;;;;;;;82.70;48.70;;;;;;;4.97;100.00;101868.38;4981721;28;20034;-85
2023/02/11 08:02:24;;;;;;;87.00;49.67;;;;;;;4.97;100.00;101863.16;4984589;28;20109;-85
2023/02/11 08:04:54;;;;;;;82.40;46.45;;;;;;;4.96;100.00;101874.47;4997360;28;20400;-85
2023/02/11 08:07:28;;;;;;;86.88;49.08;;;;;;;4.93;100.00;101866.69;4979390;28;20060;-85
2023/02/11 08:10:00;;;;;;;84.13;50.50;;;;;;;5.00;100.00;101879.63;4983571;28;20038;-86
2023/02/11 08:12:30;;;;;;;84.43;50.30;;;;;;;5.06;100.00;101895.19;4997344;28;20176;-85
2023/02/11 08:15:00;;;;;;;84.38;49.22;;;;;;;5.06;100.00;101904.75;4979593;28;20038;-85
2023/02/11 08:17:31;;;;;;;91.45;52.13;;;;;;;5.05;100.00;101901.28;4998005;28;20061;-85
2023/02/11 08:20:39;;;;;;;86.90;51.00;;;;;;;5.10;100.00;101906.44;4991123;28;20074;-85
2023/02/11 08:23:16;;;;;;;81.68;48.22;;;;;;;5.07;100.00;101916.91;5003169;28;20049;-86
2023/02/11 08:25:46;;;;;;;86.20;51.17;;;;;;;5.12;100.00;101916.84;5005717;28;20064;-86
2023/02/11 08:28:24;;;;;;;82.20;49.25;;;;;;;5.13;100.00;101914.19;5019935;28;20038;-86
2023/02/11 08:30:51;;;;;;;87.17;47.73;;;;;;;5.15;100.00;101896.78;4965708;28;20068;-85
2023/02/11 08:33:19;;;;;;;87.35;51.60;;;;;;;5.15;100.00;101907.22;4984653;28;20108;-86
2023/02/11 08:36:07;;;;;;;81.20;48.35;;;;;;;5.15;100.00;101912.44;4983851;28;20109;-85
2023/02/11 08:38:45;;;;;;;83.75;50.65;;;;;;;5.18;100.00;101906.28;4988071;28;20546;-85
2023/02/11 08:41:22;;;;;;;83.93;46.92;;;;;;;5.21;100.00;101928.00;4999390;28;20050;-86
2023/02/11 08:43:50;;;;;;;87.25;48.60;;;;;;;5.18;100.00;101920.22;4993476;28;20038;-85
2023/02/11 08:46:19;;;;;;;77.63;47.95;;;;;;;5.25;100.00;101911.41;4984703;28;20037;-85
2023/02/11 08:48:47;;;;;;;88.28;49.70;;;;;;;5.25;100.00;101911.41;4987262;28;20056;-85
2023/02/11 08:51:31;;;;;;;87.22;50.10;;;;;;;5.28;100.00;101895.69;4998700;28;20151;-85
2023/02/11 08:54:00;;;;;;;86.80;49.28;;;;;;;5.26;100.00;101884.41;4997259;28;20118;-86
2023/02/11 08:56:32;;;;;;;79.35;45.97;;;;;;;5.26;100.00;101912.25;4977747;28;20042;-88
2023/02/11 08:59:05;;;;;;;77.28;44.00;;;;;;;5.31;100.00;101895.66;4995589;28;20050;-85
2023/02/11 09:01:36;;;;;;;81.47;46.20;;;;;;;5.29;100.00;101888.72;5001754;28;20076;-85
2023/02/11 09:04:04;;;;;;;82.50;48.70;;;;;;;5.28;100.00;101889.63;4997486;28;20647;-87
2023/02/11 09:06:31;;;;;;;82.88;48.83;;;;;;;5.27;100.00;101874.84;4999271;28;20092;-88
2023/02/11 09:09:08;;;;;;;76.15;45.85;;;;;;;5.34;100.00;101874.69;4983592;28;20046;-87
2023/02/11 09:11:36;;;;;;;81.30;48.97;;;;;;;5.36;100.00;101892.97;4978675;28;20045;-86
2023/02/11 09:14:23;;;;;;;79.20;46.00;;;;;;;5.35;100.00;101909.50;5004349;28;20050;-86
2023/02/11 09:16:51;;;;;;;81.72;48.17;;;;;;;5.38;100.00;101909.44;4988691;28;20117;-87
2023/02/11 09:19:20;;;;;;;88.60;46.90;;;;;;;5.40;100.00;101906.81;4995669;28;20084;-86
2023/02/11 09:21:48;;;;;;;83.78;44.83;;;;;;;5.45;100.00;101899.75;4983961;28;20048;-88
2023/02/11 09:24:18;;;;;;;72.53;44.88;;;;;;;5.45;100.00;101899.75;4985199;28;20493;-87
2023/02/11 09:26:46;;;;;;;75.28;45.50;;;;;;;5.44;100.00;101927.63;4996140;28;20045;-88
2023/02/11 09:29:16;;;;;;;79.53;45.15;;;;;;;5.41;100.00;101924.22;4966329;28;20049;-85
2023/02/11 09:31:44;;;;;;;86.55;46.80;;;;;;;5.46;100.00;101910.19;4985586;28;20042;-85
2023/02/11 09:34:15;;;;;;;74.82;43.97;;;;;;;5.47;100.00;101921.50;4983694;28;20048;-85
2023/02/11 09:36:47;;;;;;;81.82;44.58;;;;;;;5.52;100.00;101914.44;4976170;28;20030;-85
2023/02/11 09:39:17;;;;;;;76.55;43.60;;;;;;;5.56;100.00;101937.88;5019146;28;20069;-85
2023/02/11 09:42:20;;;;;;;75.95;43.35;;;;;;;5.52;100.00;101932.72;5016598;28;20059;-85
2023/02/11 09:44:48;;;;;;;76.15;44.13;;;;;;;5.52;100.00;101932.72;5028026;28;20073;-86
2023/02/11 09:47:24;;;;;;;79.13;45.22;;;;;;;5.50;100.00;101944.97;4984059;28;20046;-86
2023/02/11 09:50:04;;;;;;;76.13;44.40;;;;;;;5.52;100.00;101928.34;4999525;28;20117;-86
2023/02/11 09:52:44;;;;;;;75.75;43.00;;;;;;;5.53;100.00;101937.06;4984431;28;20042;-86
2023/02/11 09:55:24;;;;;;;75.72;45.90;;;;;;;5.52;100.00;101938.81;4979857;28;20058;-87
2023/02/11 09:58:03;;;;;;;76.22;44.47;;;;;;;5.56;100.00;101956.16;5005354;28;20157;-86
2023/02/11 10:00:37;;;;;;;73.15;45.47;;;;;;;5.59;100.00;101955.25;5001400;28;20084;-86
2023/02/11 10:03:20;;;;;;;80.10;46.17;;;;;;;5.61;100.00;101957.81;4998811;28;20119;-86
2023/02/11 10:06:10;;;;;;;70.50;43.45;;;;;;;5.66;100.00;101975.13;5015135;28;20050;-86
2023/02/11 10:09:06;;;;;;;79.68;43.10;;;;;;;5.68;100.00;101947.25;5003522;28;20053;-86
2023/02/11 10:11:40;;;;;;;78.00;44.53;;;;;;;5.64;100.00;101958.63;4997569;28;20562;-86
2023/02/11 10:14:35;;;;;;;77.95;42.45;;;;;;;5.65;100.00;101959.50;5001068;28;20069;-86
2023/02/11 10:17:40;;;;;;;71.10;41.38;;;;;;;5.65;100.00;101947.28;4996414;28;20112;-86
2023/02/11 10:20:44;;;;;;;71.22;41.10;;;;;;;5.67;100.00;101960.31;5018133;28;20068;-86
2023/02/11 10:23:20;;;;;;;71.70;42.05;;;;;;;5.73;100.00;101955.00;5012953;28;20045;-86
2023/02/11 10:25:48;;;;;;;;;;;;;;;5.67;100.00;101950.72;4989996;28;20092;-86
2023/02/11 10:28:19;;;;;;;68.88;40.40;;;;;;;5.67;100.00;101957.72;5012732;28;19922;-86
2023/02/11 10:30:57;;;;;;;76.68;44.70;;;;;;;5.66;100.00;101962.06;4992243;28;20081;-87
2023/02/11 10:33:55;;;;;;;72.50;42.88;;;;;;;5.65;100.00;101957.75;4988805;28;20041;-86
2023/02/11 10:40:44;;;;;;;75.65;42.20;;;;;;;5.64;100.00;101960.41;5028159;28;20049;-86
2023/02/11 10:43:16;;;;;;;80.35;45.10;;;;;;;5.66;100.00;101948.16;5019641;28;20022;-86
2023/02/11 10:45:47;;;;;;;72.13;42.80;;;;;;;5.67;100.00;101942.88;4987474;28;20046;-88
2023/02/11 10:48:35;;;;;;;78.60;43.35;;;;;;;5.67;100.00;101928.97;4984359;28;20042;-88
2023/02/11 10:51:27;;;;;;;73.55;43.22;;;;;;;5.67;100.00;101929.81;4998420;28;20515;-87
2023/02/11 10:54:03;;;;;;;73.18;44.03;;;;;;;5.68;100.00;101934.19;4973276;28;20037;-88
2023/02/11 10:56:44;;;;;;;86.03;43.92;;;;;;;5.71;100.00;101955.00;5037853;28;20121;-88
2023/02/11 10:59:27;;;;;;;75.25;43.13;;;;;;;5.68;100.00;101939.41;4965894;28;20042;-87
2023/02/11 11:02:00;;;;;;;72.47;42.58;;;;;;;5.69;100.00;101927.22;4991160;28;20041;-86
2023/02/11 11:04:29;;;;;;;73.05;44.03;;;;;;;5.68;100.00;101931.56;4982241;28;20124;-86
2023/02/11 11:07:11;;;;;;;72.80;41.85;;;;;;;5.67;100.00;101906.31;4996376;28;20045;-86
2023/02/11 11:10:01;;;;;;;68.78;42.15;;;;;;;5.76;100.00;101920.97;4997794;28;20038;-86
2023/02/11 11:12:47;;;;;;;69.45;41.08;;;;;;;5.79;100.00;101920.91;4980660;28;20042;-86
2023/02/11 11:19:48;;;;;;;66.25;39.00;;;;;;;5.78;100.00;101914.84;5010883;28;20033;-86
2023/02/11 11:22:25;;;;;;;66.85;39.78;;;;;;;5.78;100.00;101914.84;5012670;28;20424;-86
2023/02/11 11:24:56;;;;;;;73.20;41.25;;;;;;;5.78;100.00;101908.75;5002623;28;20508;-86
2023/02/11 11:27:24;;;;;;;70.20;42.05;;;;;;;5.77;100.00;101900.06;5006018;28;20061;-87
2023/02/11 11:30:01;;;;;;;71.57;39.60;;;;;;;5.77;100.00;101894.84;4980714;28;20046;-88
2023/02/11 11:32:34;;;;;;;65.85;38.28;;;;;;;5.75;100.00;101908.81;4998156;28;20064;-87
2023/02/11 11:35:05;;;;;;;71.13;38.95;;;;;;;5.74;100.00;101925.38;4999335;28;20053;-87
2023/02/11 11:37:36;;;;;;;61.10;36.92;;;;;;;5.81;100.00;101924.38;4996100;28;20492;-85
2023/02/11 11:40:21;;;;;;;73.85;38.33;;;;;;;5.88;100.00;101931.19;4999704;28;22850;-85
2023/02/11 11:43:24;;;;;;;60.25;37.33;;;;;;;5.89;100.00;101919.84;4966105;28;20038;-88
2023/02/11 11:45:54;;;;;;;65.50;38.63;;;;;;;5.87;100.00;101928.63;4941169;28;20043;-87
2023/02/11 11:48:37;;;;;;;58.42;36.60;;;;;;;5.92;100.00;101914.59;4989079;28;20065;-87
2023/02/11 11:51:09;;;;;;;64.80;37.00;;;;;;;5.89;100.00;101916.38;4982549;28;20050;-88
2023/02/11 11:53:49;;;;;;;58.70;37.97;;;;;;;5.89;100.00;101917.25;4984805;28;20496;-88
2023/02/11 11:56:23;;;;;;;64.60;36.95;;;;;;;5.91;100.00;101922.47;4986059;28;20421;-87
2023/02/11 11:58:54;;;;;;;61.78;36.22;;;;;;;5.93;100.00;101911.09;5001920;28;20049;-89
2023/02/11 12:01:21;;;;;;;59.60;37.03;;;;;;;5.93;100.00;101923.31;5007122;28;20049;-89
2023/02/11 12:04:17;;;;;;;68.05;38.78;;;;;;;5.97;100.00;101925.84;5012419;28;20041;-88